Time;durP1;ratioP1;P1;durP2;ratioP2;P2;SDS_P1;SDS_P2;PMS_P1;PMS_P2;Temp;Humidity;BMP_temperature;BMP_pressure;BME280_temperature;BME280_humidity;BME280_pressure;Samples;Min_cycle;Max_cycle;Signal;HPM_P1;HPM_P2
2023/01/14 00:01:40;;;;;;;13.20;6.40;;;;;;;6.92;100.00;100524.63;5049283;28;20416;-29
2023/01/14 00:04:06;;;;;;;12.05;5.70;;;;;;;6.88;100.00;100549.88;5049026;28;20029;-31
2023/01/14 00:06:33;;;;;;;10.85;5.40;;;;;;;7.06;100.00;100552.97;5049216;28;20025;-32
2023/01/14 00:09:01;;;;;;;29.43;12.60;;;;;;;7.00;100.00;100548.41;5049169;28;20036;-30
2023/01/14 00:14:13;;;;;;;17.92;8.60;;;;;;;7.16;100.00;100553.50;5049336;28;20043;-29
2023/01/14 00:16:39;;;;;;;20.15;10.27;;;;;;;7.26;100.00;100560.38;5049204;28;20064;-29
2023/01/14 00:19:05;;;;;;;15.15;7.53;;;;;;;7.31;100.00;100552.66;5049102;28;20088;-28
2023/01/14 00:21:30;;;;;;;14.13;7.97;;;;;;;7.31;100.00;100552.66;5049159;28;20033;-28
2023/01/14 00:23:56;;;;;;;13.95;7.65;;;;;;;7.29;100.00;100549.38;5047752;28;20535;-29
2023/01/14 00:26:22;;;;;;;13.48;6.70;;;;;;;7.22;100.00;100536.03;5048947;28;20045;-28
2023/01/14 00:28:49;;;;;;;20.80;11.63;;;;;;;7.27;100.00;100551.41;5047447;28;20133;-28
2023/01/14 00:31:18;;;;;;;12.40;7.03;;;;;;;7.09;100.00;100530.56;5047834;28;20032;-28
2023/01/14 00:33:44;;;;;;;9.65;4.90;;;;;;;7.11;100.00;100540.00;5047576;28;20025;-27
2023/01/14 00:36:12;;;;;;;9.20;4.40;;;;;;;7.13;100.00;100553.91;5047606;28;20036;-28
2023/01/14 00:38:38;;;;;;;13.57;8.68;;;;;;;7.18;100.00;100550.69;5047719;28;20408;-30
2023/01/14 00:41:16;;;;;;;12.57;6.35;;;;;;;7.24;100.00;100553.41;5049225;28;20033;-27
2023/01/14 00:43:43;;;;;;;;;;;;;;;7.14;100.00;100544.91;5048097;28;20115;-28
2023/01/14 00:46:11;;;;;;;9.40;4.80;;;;;;;7.00;100.00;100530.66;5048976;28;20484;-27
2023/01/14 00:48:36;;;;;;;;;;;;;;;7.10;100.00;100548.94;5049089;28;20159;-30
2023/01/14 00:51:02;;;;;;;9.95;4.90;;;;;;;7.09;100.00;100534.06;5048892;28;20003;-31
2023/01/14 00:53:28;;;;;;;8.18;4.47;;;;;;;7.21;100.00;100535.22;5049121;28;20110;-30
2023/01/14 00:55:54;;;;;;;9.55;5.07;;;;;;;7.19;100.00;100537.25;5048731;28;20064;-31
2023/01/14 00:58:19;;;;;;;9.85;5.15;;;;;;;7.08;100.00;100513.84;5047185;28;20036;-28
2023/01/14 01:00:45;;;;;;;8.40;4.70;;;;;;;7.07;100.00;100511.34;5051787;28;20029;-32
2023/01/14 01:03:12;;;;;;;10.15;5.40;;;;;;;7.27;100.00;100538.94;5052577;28;20025;-30
2023/01/14 01:05:39;;;;;;;9.80;5.20;;;;;;;7.00;100.00;100521.88;5052677;28;20074;-29
2023/01/14 01:08:06;;;;;;;10.68;4.35;;;;;;;7.08;100.00;100513.84;5052498;28;20037;-31
2023/01/14 01:10:35;;;;;;;10.07;5.50;;;;;;;7.14;100.00;100521.03;5052568;28;20037;-31
2023/01/14 01:13:02;;;;;;;10.38;5.32;;;;;;;7.13;100.00;100532.69;5052594;28;20033;-29
2023/01/14 01:15:28;;;;;;;11.10;5.53;;;;;;;7.27;100.00;100532.81;5050849;28;20033;-29
2023/01/14 01:17:53;;;;;;;10.65;5.05;;;;;;;7.34;100.00;100533.75;5052297;28;20932;-28
2023/01/14 01:20:19;;;;;;;12.45;6.18;;;;;;;7.29;100.00;100525.50;5052349;28;20057;-29
2023/01/14 01:22:44;;;;;;;11.57;5.70;;;;;;;7.26;100.00;100525.91;5050928;28;20025;-29
2023/01/14 01:25:09;;;;;;;16.27;9.40;;;;;;;7.26;100.00;100526.72;5052339;28;20041;-29
2023/01/14 01:27:35;;;;;;;17.50;10.90;;;;;;;7.27;100.00;100528.34;5051904;28;20056;-29
2023/01/14 01:30:00;;;;;;;15.90;8.43;;;;;;;7.28;100.00;100502.66;5050446;28;20094;-28
2023/01/14 01:32:26;;;;;;;14.60;7.82;;;;;;;7.13;100.00;100498.19;5051542;28;20029;-29
2023/01/14 01:34:51;;;;;;;13.23;7.20;;;;;;;7.24;100.00;100512.81;5050869;28;20025;-28
2023/01/14 01:37:17;;;;;;;12.10;6.35;;;;;;;7.33;100.00;100516.16;5051127;28;20036;-29
2023/01/14 01:39:42;;;;;;;14.07;8.10;;;;;;;7.13;100.00;100487.59;5050695;28;20515;-29
2023/01/14 01:42:15;;;;;;;14.93;8.40;;;;;;;6.96;100.00;100486.13;5051931;28;20492;-28
2023/01/14 01:44:40;;;;;;;13.45;6.75;;;;;;;7.09;100.00;100506.69;5051882;28;20085;-27
2023/01/14 01:47:08;;;;;;;14.30;6.63;;;;;;;7.19;100.00;100494.81;5050810;28;20032;-30
2023/01/14 01:49:36;;;;;;;14.73;6.80;;;;;;;7.05;100.00;100485.03;5050534;28;20032;-29
2023/01/14 01:52:17;;;;;;;11.90;6.70;;;;;;;7.07;100.00;100496.28;5051509;28;20032;-30
2023/01/14 01:54:48;;;;;;;11.27;6.25;;;;;;;6.98;100.00;100487.59;5051803;28;20037;-27
2023/01/14 01:57:15;;;;;;;15.05;7.65;;;;;;;6.98;100.00;100492.06;5051636;28;20525;-28
2023/01/14 01:59:45;;;;;;;19.15;10.40;;;;;;;6.88;100.00;100497.66;5051633;28;20025;-29
2023/01/14 02:02:11;;;;;;;20.35;10.50;;;;;;;6.81;100.00;100486.97;5051967;28;20040;-30
2023/01/14 02:04:37;;;;;;;18.92;10.80;;;;;;;6.66;100.00;100435.81;5050200;28;20018;-29
2023/01/14 02:07:02;;;;;;;15.90;9.20;;;;;;;6.94;100.00;100480.19;5050300;28;20037;-29
2023/01/14 02:09:29;;;;;;;14.70;7.82;;;;;;;6.98;100.00;100486.78;5049972;28;20063;-29
2023/01/14 02:12:06;;;;;;;13.57;7.22;;;;;;;7.11;100.00;100484.31;5049790;28;20025;-29
2023/01/14 02:14:56;;;;;;;17.80;8.00;;;;;;;7.01;100.00;100491.72;5051505;28;20025;-29
2023/01/14 02:17:31;;;;;;;13.40;7.10;;;;;;;7.16;100.00;100481.09;5050288;28;20030;-29
2023/01/14 02:20:03;;;;;;;15.60;7.35;;;;;;;7.09;100.00;100481.00;5049725;28;20079;-30
2023/01/14 02:22:52;;;;;;;14.80;8.20;;;;;;;7.23;100.00;100469.56;5051595;28;20039;-27
2023/01/14 02:25:20;;;;;;;15.30;8.38;;;;;;;7.21;100.00;100476.88;5051243;28;20087;-30
2023/01/14 02:27:54;;;;;;;13.82;6.97;;;;;;;7.30;100.00;100468.81;5049450;28;20102;-31
2023/01/14 02:30:43;;;;;;;15.65;6.90;;;;;;;7.26;100.00;100475.50;5050918;28;20040;-29
2023/01/14 02:33:46;;;;;;;13.90;7.32;;;;;;;7.10;100.00;100453.47;5051174;28;20025;-28
2023/01/14 02:36:28;;;;;;;11.60;6.90;;;;;;;7.14;100.00;100468.00;5031428;28;20614;-31
2023/01/14 02:39:01;;;;;;;12.48;6.50;;;;;;;7.07;100.00;100466.28;5050731;28;20041;-29
2023/01/14 02:44:38;;;;;;;14.55;7.72;;;;;;;7.06;100.00;100465.47;5050853;28;20098;-29
2023/01/14 02:47:09;;;;;;;22.92;13.75;;;;;;;7.00;100.00;100468.84;5050515;28;20485;-28
2023/01/14 02:49:39;;;;;;;20.10;11.23;;;;;;;6.90;100.00;100468.31;5050894;28;20035;-31
2023/01/14 02:52:06;;;;;;;15.68;9.40;;;;;;;6.80;100.00;100469.44;5050413;28;20017;-28
2023/01/14 02:54:32;;;;;;;10.80;6.05;;;;;;;6.90;100.00;100466.47;5050587;28;20054;-28
2023/01/14 02:57:13;;;;;;;13.98;6.88;;;;;;;6.95;100.00;100463.28;5049198;28;20029;-28
2023/01/14 02:59:59;;;;;;;15.75;7.00;;;;;;;6.91;100.00;100472.63;5049117;28;20029;-28
2023/01/14 03:02:50;;;;;;;12.18;6.18;;;;;;;6.83;100.00;100449.69;5050681;28;20029;-29
2023/01/14 03:05:21;;;;;;;12.32;6.10;;;;;;;6.87;100.00;100476.66;5050350;28;20029;-28
2023/01/14 03:07:53;;;;;;;13.30;6.35;;;;;;;6.71;100.00;100465.22;5050454;28;20413;-28
2023/01/14 03:10:28;;;;;;;10.57;5.68;;;;;;;6.73;100.00;100465.88;5048604;28;20029;-28
2023/01/14 03:12:59;;;;;;;12.93;6.22;;;;;;;6.90;100.00;100478.91;5050268;28;20029;-27
2023/01/14 03:15:36;;;;;;;11.45;5.63;;;;;;;6.58;100.00;100449.16;5050116;28;20032;-28
2023/01/14 03:18:25;;;;;;;11.73;6.30;;;;;;;6.71;100.00;100459.94;5048720;28;20024;-27
2023/01/14 03:21:03;;;;;;;11.57;6.07;;;;;;;6.81;100.00;100479.03;5050067;28;20052;-28
2023/01/14 03:23:35;;;;;;;12.60;6.35;;;;;;;6.70;100.00;100476.84;5048171;28;20029;-28
2023/01/14 03:26:03;;;;;;;12.48;6.32;;;;;;;6.71;100.00;100480.31;5048201;28;20052;-28
2023/01/14 03:28:34;;;;;;;11.80;6.35;;;;;;;6.73;100.00;100463.22;5049870;28;20029;-33
2023/01/14 03:31:06;;;;;;;13.68;6.38;;;;;;;6.71;100.00;100467.88;5048357;28;20037;-29
2023/01/14 03:33:40;;;;;;;15.05;7.75;;;;;;;6.63;100.00;100474.09;5048714;28;20040;-38
2023/01/14 03:36:07;;;;;;;13.93;8.13;;;;;;;6.63;100.00;100462.66;5049877;28;20025;-30
2023/01/14 03:38:41;;;;;;;15.57;8.18;;;;;;;6.61;100.00;100478.75;5048563;28;20070;-29
2023/01/14 03:41:11;;;;;;;17.02;8.63;;;;;;;6.72;100.00;100476.63;5049885;28;20036;-29
2023/01/14 03:43:46;;;;;;;16.08;8.20;;;;;;;7.02;100.00;100475.59;5048517;28;20635;-29
2023/01/14 03:46:12;;;;;;;15.98;9.15;;;;;;;6.72;100.00;100466.88;5048188;28;20111;-31
2023/01/14 03:48:37;;;;;;;16.33;8.85;;;;;;;6.87;100.00;100481.97;5049659;28;20032;-27
2023/01/14 03:51:09;;;;;;;17.05;10.00;;;;;;;6.82;100.00;100470.06;5047932;28;20112;-28
2023/01/14 03:53:49;;;;;;;14.35;8.35;;;;;;;7.02;100.00;100488.06;5049587;28;20025;-28
2023/01/14 03:56:23;;;;;;;15.88;8.23;;;;;;;6.87;100.00;100485.41;5049467;28;20039;-27
2023/01/14 03:59:01;;;;;;;13.88;7.40;;;;;;;6.91;100.00;100485.88;5049731;28;20060;-29
2023/01/14 04:01:39;;;;;;;14.10;7.57;;;;;;;6.80;100.00;100464.13;5049605;28;20060;-27
2023/01/14 04:04:05;;;;;;;47.33;20.67;;;;;;;6.95;100.00;100465.94;5049061;28;20037;-27
2023/01/14 04:06:31;;;;;;;26.38;13.05;;;;;;;7.12;100.00;100493.06;5047912;28;20032;-30
2023/01/14 04:08:57;;;;;;;27.20;14.10;;;;;;;7.08;100.00;100486.50;5049499;28;20021;-28
2023/01/14 04:11:22;;;;;;;26.83;14.93;;;;;;;7.04;100.00;100472.78;5049492;28;20033;-29
2023/01/14 04:16:32;;;;;;;17.38;10.13;;;;;;;7.21;100.00;100470.72;5049536;28;20031;-30
2023/01/14 04:18:57;;;;;;;14.32;7.90;;;;;;;7.22;100.00;100475.03;5049151;28;20025;-28
2023/01/14 04:21:23;;;;;;;14.70;8.25;;;;;;;7.10;100.00;100482.63;5049077;28;20037;-32
2023/01/14 04:23:48;;;;;;;22.17;11.73;;;;;;;7.16;100.00;100465.97;5047788;28;20115;-27
2023/01/14 04:26:14;;;;;;;17.73;10.65;;;;;;;7.27;100.00;100469.16;5047435;28;20457;-27
2023/01/14 04:28:39;;;;;;;17.67;10.10;;;;;;;7.23;100.00;100480.16;5047655;28;20045;-30
2023/01/14 04:31:04;;;;;;;15.63;10.38;;;;;;;7.24;100.00;100460.56;5048825;28;20090;-28
2023/01/14 04:33:30;;;;;;;15.38;9.00;;;;;;;7.34;100.00;100478.84;5051042;28;20101;-27
2023/01/14 04:35:55;;;;;;;16.42;8.98;;;;;;;7.13;100.00;100447.81;5055695;28;20028;-28
2023/01/14 04:38:22;;;;;;;12.93;7.50;;;;;;;7.34;100.00;100483.34;5055832;28;20023;-28
2023/01/14 04:40:52;;;;;;;14.55;7.88;;;;;;;7.54;100.00;100480.88;5055781;28;20029;-29
2023/01/14 04:43:18;;;;;;;13.18;7.32;;;;;;;7.30;100.00;100468.81;5055724;28;20098;-27
2023/01/14 04:45:43;;;;;;;16.63;7.88;;;;;;;7.41;100.00;100485.03;5054160;28;20425;-32
2023/01/14 04:48:09;;;;;;;12.10;6.55;;;;;;;7.43;100.00;100479.53;5055365;28;20044;-28
2023/01/14 04:50:36;;;;;;;13.80;6.75;;;;;;;7.31;100.00;100487.16;5055854;28;20476;-27
2023/01/14 04:53:20;;;;;;;12.45;6.40;;;;;;;7.27;100.00;100469.16;5054085;28;20063;-28
2023/01/14 04:55:48;;;;;;;13.02;7.25;;;;;;;7.32;100.00;100488.81;5055606;28;20083;-27
2023/01/14 04:58:17;;;;;;;35.58;16.33;;;;;;;7.28;100.00;100497.34;5055178;28;20036;-28
2023/01/14 05:00:43;;;;;;;20.67;9.77;;;;;;;7.44;100.00;100497.13;5054104;28;20048;-27
2023/01/14 05:03:11;;;;;;;15.52;9.68;;;;;;;7.41;100.00;100502.78;5055696;28;20489;-29
2023/01/14 05:05:37;;;;;;;15.98;8.90;;;;;;;7.22;100.00;100462.59;5055456;28;20024;-31
2023/01/14 05:08:04;;;;;;;18.30;9.90;;;;;;;7.21;100.00;100487.47;5055125;28;20457;-27
2023/01/14 05:10:30;;;;;;;20.05;10.32;;;;;;;7.44;100.00;100478.53;5055299;28;20103;-28
2023/01/14 05:12:56;;;;;;;18.50;10.30;;;;;;;7.49;100.00;100505.31;5054939;28;20033;-28
2023/01/14 05:15:26;;;;;;;15.95;8.13;;;;;;;7.47;100.00;100485.31;5055713;28;20043;-27
2023/01/14 05:17:52;;;;;;;17.48;8.82;;;;;;;7.48;100.00;100495.72;5054047;28;20512;-28
2023/01/14 05:20:18;;;;;;;15.93;8.05;;;;;;;7.54;100.00;100510.06;5055527;28;20047;-27
2023/01/14 05:22:43;;;;;;;13.88;6.88;;;;;;;7.50;100.00;100500.84;5055506;28;20032;-29
2023/01/14 05:25:09;;;;;;;14.43;7.22;;;;;;;7.38;100.00;100497.88;5055093;28;20481;-28
2023/01/14 05:27:35;;;;;;;15.98;8.20;;;;;;;7.45;100.00;100498.75;5054878;28;20061;-28
2023/01/14 05:30:02;;;;;;;13.63;7.20;;;;;;;7.29;100.00;100493.66;5053637;28;20108;-28
2023/01/14 05:32:28;;;;;;;16.77;9.05;;;;;;;7.31;100.00;100497.78;5055339;28;20032;-30
2023/01/14 05:34:53;;;;;;;17.23;9.98;;;;;;;7.35;100.00;100500.88;5055313;28;20021;-29
2023/01/14 05:37:19;;;;;;;17.70;9.35;;;;;;;7.29;100.00;100485.72;5055268;28;20044;-29
2023/01/14 05:39:44;;;;;;;15.73;8.70;;;;;;;6.98;100.00;100471.69;5055168;28;20032;-29
2023/01/14 05:47:37;;;;;;;19.92;11.27;;;;;;;7.17;100.00;100510.09;5052179;28;20408;-27
2023/01/14 05:50:03;;;;;;;22.75;11.73;;;;;;;7.22;100.00;100510.34;5051554;28;20036;-28
2023/01/14 05:52:28;;;;;;;21.95;13.38;;;;;;;7.11;100.00;100509.97;5051637;28;20076;-28
2023/01/14 05:54:54;;;;;;;23.73;11.73;;;;;;;7.08;100.00;100519.13;5050582;28;20082;-27
2023/01/14 05:57:19;;;;;;;20.40;12.07;;;;;;;7.07;100.00;100501.59;5051588;28;20107;-28
2023/01/14 05:59:44;;;;;;;21.60;12.20;;;;;;;7.02;100.00;100496.00;5050375;28;20028;-28
2023/01/14 06:07:54;;;;;;;16.45;8.68;;;;;;;6.96;100.00;100508.16;5048860;28;20060;-28
2023/01/14 06:10:24;;;;;;;18.30;10.35;;;;;;;7.03;100.00;100505.63;5050420;28;20120;-29
2023/01/14 06:12:59;;;;;;;15.75;8.02;;;;;;;7.13;100.00;100500.84;5051450;28;20029;-29
2023/01/14 06:15:29;;;;;;;18.95;10.07;;;;;;;7.14;100.00;100502.47;5051175;28;20537;-27
2023/01/14 06:18:08;;;;;;;20.25;10.35;;;;;;;7.14;100.00;100507.78;5050068;28;20056;-27
2023/01/14 06:20:36;;;;;;;32.47;16.20;;;;;;;7.09;100.00;100501.38;5051379;28;20017;-35
2023/01/14 06:23:01;;;;;;;32.70;17.10;;;;;;;7.07;100.00;100506.06;5051345;28;20060;-28
2023/01/14 06:25:29;;;;;;;31.00;15.88;;;;;;;7.00;100.00;100504.13;5049641;28;20060;-29
2023/01/14 06:27:56;;;;;;;26.90;12.43;;;;;;;6.90;100.00;100503.59;5050871;28;20076;-28
2023/01/14 06:30:21;;;;;;;30.38;16.17;;;;;;;7.02;100.00;100503.97;5051056;28;20036;-28
2023/01/14 06:32:47;;;;;;;25.27;14.90;;;;;;;7.11;100.00;100505.53;5051246;28;20033;-31
2023/01/14 06:35:13;;;;;;;22.85;14.00;;;;;;;7.00;100.00;100495.38;5051220;28;20017;-29
2023/01/14 06:37:42;;;;;;;22.65;12.57;;;;;;;7.06;100.00;100505.25;5051052;28;20086;-28
2023/01/14 06:40:08;;;;;;;21.77;11.18;;;;;;;7.22;100.00;100496.25;5050831;28;20052;-31
2023/01/14 06:42:34;;;;;;;32.83;22.52;;;;;;;7.08;100.00;100484.66;5050969;28;20112;-29
2023/01/14 06:44:59;;;;;;;26.98;17.70;;;;;;;7.11;100.00;100489.59;5051045;28;20112;-30
2023/01/14 06:47:24;;;;;;;22.58;12.52;;;;;;;7.11;100.00;100500.22;5049401;28;20032;-27
2023/01/14 06:49:50;;;;;;;25.38;14.95;;;;;;;7.21;100.00;100505.19;5050850;28;20021;-31
2023/01/14 06:52:15;;;;;;;22.23;10.88;;;;;;;7.17;100.00;100504.78;5050251;28;20029;-27
2023/01/14 06:54:41;;;;;;;27.70;15.18;;;;;;;7.06;100.00;100499.94;5050644;28;20478;-27
2023/01/14 06:57:06;;;;;;;19.27;9.70;;;;;;;7.10;100.00;100490.59;5047996;28;20029;-28
2023/01/14 06:59:31;;;;;;;16.58;8.65;;;;;;;7.09;100.00;100478.38;5049335;28;20110;-27
2023/01/14 07:01:57;;;;;;;17.10;9.68;;;;;;;16.65;88.68;100507.81;5050970;28;20029;-28
2023/01/14 07:04:22;;;;;;;81.05;50.63;;;;;;;19.62;63.72;100531.84;5050256;28;20051;-29
2023/01/14 07:06:49;;;;;;;43.08;26.38;;;;;;;18.32;62.89;100527.16;5050613;28;20174;-29
2023/01/14 07:09:14;;;;;;;33.08;18.63;;;;;;;17.12;64.66;100523.56;5050235;28;20044;-27
2023/01/14 07:11:41;;;;;;;131.43;92.40;;;;;;;16.92;66.47;100517.88;5050231;28;20443;-30
2023/01/14 07:14:07;;;;;;;87.88;63.35;;;;;;;17.17;69.31;100531.69;5050114;28;20094;-28
2023/01/14 07:16:32;;;;;;;27.92;20.15;;;;;;;17.92;64.82;100537.38;5050289;28;20389;-28
2023/01/14 07:18:58;;;;;;;35.45;27.98;;;;;;;14.89;70.88;100512.25;5048927;28;20047;-28
2023/01/14 07:21:23;;;;;;;32.92;24.08;;;;;;;11.94;81.52;100525.13;5032968;28;20071;-28
2023/01/14 07:23:50;;;;;;;32.53;15.70;;;;;;;10.57;91.42;100519.09;5030274;28;20033;-29
2023/01/14 07:26:17;;;;;;;27.30;11.05;;;;;;;9.86;92.08;100515.19;5028125;28;20115;-31
2023/01/14 07:28:42;;;;;;;22.92;11.43;;;;;;;9.37;98.35;100530.41;5030197;28;20091;-29
2023/01/14 07:31:08;;;;;;;53.40;34.20;;;;;;;9.33;98.50;100501.75;5030116;28;20037;-29
2023/01/14 07:33:34;;;;;;;63.15;43.22;;;;;;;10.44;100.00;100523.44;5030145;28;20029;-29
2023/01/14 07:36:00;;;;;;;47.38;35.97;;;;;;;10.28;95.19;100526.47;5031894;28;20110;-32
2023/01/14 07:38:25;;;;;;;40.97;28.88;;;;;;;10.27;96.70;100530.16;5050000;28;20037;-29
2023/01/14 07:40:52;;;;;;;37.15;22.73;;;;;;;10.61;98.96;100523.00;5049699;28;20416;-28
2023/01/14 07:43:18;;;;;;;31.80;21.23;;;;;;;9.95;100.00;100529.94;5048446;28;20020;-28
2023/01/14 07:45:44;;;;;;;36.05;24.60;;;;;;;10.41;95.56;100526.50;5049881;28;20522;-28
2023/01/14 07:48:09;;;;;;;19.35;9.25;;;;;;;8.89;97.96;100521.59;5049769;28;20441;-29
2023/01/14 07:50:35;;;;;;;35.85;24.83;;;;;;;8.93;100.00;100522.84;5049592;28;20481;-28
2023/01/14 07:53:00;;;;;;;36.80;27.65;;;;;;;7.85;100.00;100526.53;5049442;28;20029;-27
2023/01/14 07:55:27;;;;;;;39.88;29.48;;;;;;;7.89;100.00;100526.16;5048148;28;20068;-27
2023/01/14 07:57:53;;;;;;;51.92;38.85;;;;;;;7.36;100.00;100526.41;5049587;28;20032;-29
2023/01/14 08:00:19;;;;;;;29.00;13.60;;;;;;;7.42;100.00;100526.50;5049408;28;20029;-27
2023/01/14 08:02:45;;;;;;;18.08;10.13;;;;;;;7.43;100.00;100537.91;5048250;28;20449;-29
2023/01/14 08:05:11;;;;;;;41.97;25.55;;;;;;;7.24;100.00;100529.53;5049285;28;20513;-27
2023/01/14 08:07:37;;;;;;;45.78;26.52;;;;;;;7.92;100.00;100542.53;5047816;28;20116;-29
2023/01/14 08:10:03;;;;;;;36.33;23.30;;;;;;;7.24;100.00;100540.16;5048405;28;20031;-29
2023/01/14 08:12:31;;;;;;;65.40;33.83;;;;;;;7.54;100.00;100533.94;5048081;28;20114;-27
2023/01/14 08:14:57;;;;;;;77.18;39.65;;;;;;;8.49;100.00;100526.69;5049314;28;20033;-30
2023/01/14 08:17:23;;;;;;;150.43;68.70;;;;;;;8.12;100.00;100541.91;5049299;28;20404;-27
2023/01/14 08:19:48;;;;;;;40.95;20.85;;;;;;;7.01;100.00;100512.94;5049485;28;20040;-27
2023/01/14 08:22:14;;;;;;;35.78;18.40;;;;;;;8.14;100.00;100545.19;5048822;28;20033;-26
2023/01/14 08:24:39;;;;;;;56.28;31.27;;;;;;;8.37;100.00;100552.94;5048963;28;20025;-28
2023/01/14 08:27:05;;;;;;;40.35;21.25;;;;;;;8.35;100.00;100526.53;5048740;28;20098;-31
2023/01/14 08:29:30;;;;;;;35.15;20.00;;;;;;;8.61;100.00;100547.22;5047820;28;20483;-29
2023/01/14 08:31:55;;;;;;;38.58;18.92;;;;;;;9.04;100.00;100543.59;5047448;28;20037;-27
2023/01/14 08:34:24;;;;;;;87.50;38.13;;;;;;;8.62;100.00;100545.38;5048871;28;20033;-29
2023/01/14 08:36:50;;;;;;;75.68;36.17;;;;;;;8.14;100.00;100550.50;5049306;28;20350;-29
2023/01/14 08:39:17;;;;;;;55.80;32.50;;;;;;;8.38;100.00;100555.41;5049376;28;20056;-28
2023/01/14 08:41:43;;;;;;;31.60;22.63;;;;;;;7.61;100.00;100559.56;5048685;28;20036;-27
2023/01/14 08:44:10;;;;;;;35.42;26.77;;;;;;;7.97;100.00;100553.41;5048993;28;20033;-28
2023/01/14 08:46:35;;;;;;;28.17;19.52;;;;;;;7.50;100.00;100541.47;5049236;28;20485;-28
2023/01/14 08:49:01;;;;;;;25.17;16.63;;;;;;;7.44;100.00;100539.56;5048911;28;20040;-29
2023/01/14 08:51:28;;;;;;;27.77;16.58;;;;;;;7.39;100.00;100552.56;5048747;28;20029;-27
2023/01/14 08:54:00;;;;;;;21.17;11.80;;;;;;;7.21;100.00;100553.78;5047338;28;20025;-28
2023/01/14 08:56:26;;;;;;;22.75;11.65;;;;;;;7.59;100.00;100558.94;5047614;28;20270;-27
2023/01/14 08:58:52;;;;;;;42.25;31.00;;;;;;;7.38;100.00;100550.94;5047561;28;20029;-27
2023/01/14 09:01:17;;;;;;;41.95;24.95;;;;;;;7.30;100.00;100533.28;5048994;28;20378;-29
2023/01/14 09:03:45;;;;;;;72.75;50.75;;;;;;;7.35;100.00;100553.94;5048845;28;20546;-28
2023/01/14 09:06:13;;;;;;;32.83;21.08;;;;;;;7.46;100.00;100550.81;5032078;28;20045;-28
2023/01/14 09:17:14;;;;;;;29.05;16.88;;;;;;;7.07;100.00;100554.63;5028852;28;20071;-30
2023/01/14 09:19:58;;;;;;;52.40;29.27;;;;;;;7.34;100.00;100554.97;5027633;28;20040;-27
2023/01/14 09:22:27;;;;;;;55.92;36.72;;;;;;;7.29;100.00;100555.50;5032363;28;20132;-28
2023/01/14 09:24:53;;;;;;;53.22;33.40;;;;;;;7.21;100.00;100545.00;5030823;28;20040;-32
2023/01/14 09:27:20;;;;;;;49.08;32.08;;;;;;;7.29;100.00;100549.38;5041081;28;20729;-30
2023/01/14 09:29:46;;;;;;;53.45;29.92;;;;;;;7.28;100.00;100540.59;5042183;28;20023;-29
2023/01/14 09:32:13;;;;;;;45.58;26.17;;;;;;;7.49;100.00;100545.13;5042292;28;20025;-28
2023/01/14 09:34:40;;;;;;;52.33;28.30;;;;;;;7.45;100.00;100541.22;5040849;28;20033;-29
2023/01/14 09:37:05;;;;;;;56.47;31.10;;;;;;;7.21;100.00;100540.53;5041842;28;20087;-30
2023/01/14 09:39:31;;;;;;;35.70;18.92;;;;;;;7.00;100.00;100519.22;5042344;28;20025;-29
2023/01/14 09:42:00;;;;;;;38.20;21.20;;;;;;;7.21;100.00;100527.28;5044717;28;20032;-28
2023/01/14 09:44:26;;;;;;;66.35;34.85;;;;;;;7.29;100.00;100525.50;5045761;28;20021;-29
2023/01/14 09:46:52;;;;;;;28.67;16.88;;;;;;;6.94;100.00;100509.38;5042363;28;20064;-30
2023/01/14 09:49:22;;;;;;;70.85;50.03;;;;;;;7.12;100.00;100531.03;5041443;28;20172;-29
2023/01/14 09:52:06;;;;;;;68.68;38.95;;;;;;;7.34;100.00;100523.13;5040387;28;20032;-29
2023/01/14 09:54:40;;;;;;;44.13;24.73;;;;;;;7.36;100.00;100515.81;5030588;28;20091;-30
2023/01/14 09:57:19;;;;;;;50.53;30.48;;;;;;;7.03;100.00;100497.66;5041284;28;20029;-29
2023/01/14 09:59:55;;;;;;;39.97;25.63;;;;;;;7.03;100.00;100526.84;5031841;28;20464;-30
2023/01/14 10:02:43;;;;;;;27.98;16.75;;;;;;;7.21;100.00;100519.31;5040535;28;20049;-32
2023/01/14 10:05:18;;;;;;;17.80;9.73;;;;;;;6.97;100.00;100519.63;5041768;28;20089;-30
2023/01/14 10:07:44;;;;;;;62.42;35.90;;;;;;;7.16;100.00;100503.13;5040748;28;20021;-30
2023/01/14 10:10:18;;;;;;;55.67;36.22;;;;;;;7.07;100.00;100514.84;5041484;28;20025;-30
2023/01/14 10:12:46;;;;;;;105.57;58.08;;;;;;;7.10;100.00;100508.34;5040565;28;20030;-32
2023/01/14 10:15:36;;;;;;;54.58;35.20;;;;;;;7.27;100.00;100508.94;5039679;28;20041;-30
2023/01/14 10:18:30;;;;;;;73.47;47.28;;;;;;;7.17;100.00;100504.78;5038705;28;20180;-31
2023/01/14 10:20:59;;;;;;;47.90;32.78;;;;;;;7.14;100.00;100499.81;5040813;28;20028;-31
2023/01/14 10:23:30;;;;;;;20.40;10.25;;;;;;;7.47;100.00;100480.00;5045143;28;20035;-29
2023/01/14 10:25:56;;;;;;;21.60;11.27;;;;;;;7.63;100.00;100480.56;5049604;28;20110;-32
2023/01/14 10:28:25;;;;;;;28.00;15.57;;;;;;;7.70;100.00;100501.03;5050917;28;20063;-31
2023/01/14 10:30:51;;;;;;;21.33;11.13;;;;;;;7.48;100.00;100474.50;5049505;28;20481;-31
2023/01/14 10:33:19;;;;;;;30.05;17.90;;;;;;;7.55;100.00;100493.97;5050764;28;20032;-30
2023/01/14 10:35:54;;;;;;;33.15;19.30;;;;;;;7.57;100.00;100497.25;5050796;28;20037;-30
2023/01/14 10:38:23;;;;;;;57.55;30.17;;;;;;;7.31;100.00;100471.25;5050766;28;20037;-29
2023/01/14 10:40:52;;;;;;;78.78;44.50;;;;;;;7.60;100.00;100480.97;5051102;28;20104;-31
2023/01/14 10:43:30;;;;;;;32.08;19.35;;;;;;;7.60;100.00;100488.06;5049195;28;20025;-30
2023/01/14 10:45:57;;;;;;;96.88;54.70;;;;;;;7.37;100.00;100459.88;5050716;28;20037;-32
2023/01/14 10:48:24;;;;;;;40.63;27.23;;;;;;;7.44;100.00;100460.78;5050275;28;20032;-29
2023/01/14 10:50:51;;;;;;;37.45;21.15;;;;;;;7.53;100.00;100474.75;5050865;28;20484;-30
2023/01/14 10:53:20;;;;;;;41.30;25.27;;;;;;;7.40;100.00;100474.63;5049163;28;20039;-28
2023/01/14 10:55:59;;;;;;;73.15;48.60;;;;;;;7.68;100.00;100473.88;5050658;28;20112;-29
2023/01/14 10:58:37;;;;;;;65.63;42.20;;;;;;;7.57;100.00;100470.69;5049015;28;20119;-30
2023/01/14 11:01:08;;;;;;;189.13;97.70;;;;;;;7.63;100.00;100469.94;5050332;28;20033;-28
2023/01/14 11:03:39;;;;;;;206.85;101.18;;;;;;;7.59;100.00;100451.94;5050455;28;20032;-28
2023/01/14 11:06:10;;;;;;;160.98;71.63;;;;;;;7.69;100.00;100462.25;5050599;28;20032;-26
2023/01/14 11:08:36;;;;;;;75.10;37.58;;;;;;;7.67;100.00;100461.63;5048851;28;20039;-32
2023/01/14 11:11:07;;;;;;;235.27;122.47;;;;;;;7.79;100.00;100460.09;5050168;28;20028;-29
2023/01/14 11:13:44;;;;;;;395.45;176.63;;;;;;;7.83;100.00;100450.75;5048525;28;20142;-27
2023/01/14 11:16:21;;;;;;;70.53;39.45;;;;;;;8.03;100.00;100457.03;5048765;28;20459;-28
2023/01/14 11:19:16;;;;;;;58.28;36.45;;;;;;;8.13;100.00;100453.19;5049969;28;20032;-28
2023/01/14 11:21:53;;;;;;;20.85;12.98;;;;;;;8.06;100.00;100458.47;5049537;28;20052;-29
2023/01/14 11:24:29;;;;;;;43.77;28.67;;;;;;;7.75;100.00;100435.75;5049918;28;20526;-30
2023/01/14 11:27:14;;;;;;;46.95;19.85;;;;;;;8.20;100.00;100462.06;5049731;28;20789;-28
2023/01/14 11:29:56;;;;;;;34.63;17.27;;;;;;;8.13;100.00;100450.53;5048499;28;20068;-28
2023/01/14 11:32:29;;;;;;;38.70;22.95;;;;;;;7.80;100.00;100446.59;5049916;28;20035;-27
2023/01/14 11:35:01;;;;;;;23.30;12.05;;;;;;;7.87;100.00;100454.66;5048787;28;20030;-27
2023/01/14 11:37:40;;;;;;;23.88;12.32;;;;;;;7.68;100.00;100452.63;5048544;28;20531;-27
2023/01/14 11:40:19;;;;;;;23.33;12.52;;;;;;;7.80;100.00;100451.09;5048084;28;20060;-28
2023/01/14 11:42:46;;;;;;;25.17;11.65;;;;;;;7.36;100.00;100417.63;5047541;28;20033;-28
2023/01/14 11:45:11;;;;;;;29.45;13.60;;;;;;;7.38;100.00;100442.97;5048234;28;20032;-27
2023/01/14 11:47:48;;;;;;;22.02;12.00;;;;;;;7.74;100.00;100463.31;5049619;28;20374;-28
2023/01/14 11:50:24;;;;;;;26.52;13.77;;;;;;;7.91;100.00;100453.25;5049560;28;20029;-27
2023/01/14 11:53:02;;;;;;;27.70;14.57;;;;;;;7.97;100.00;100449.84;5048058;28;20095;-28